sensor_id;sensor_type;location;lat;lon;timestamp;P1;durP1;ratioP1;P2;durP2;ratioP2
44204;SDS011;30163;42.698;23.344;2022-12-20T00:01:25;57.88;;;23.10;;
44204;SDS011;30163;42.698;23.344;2022-12-20T00:03:55;48.92;;;19.63;;
44204;SDS011;30163;42.698;23.344;2022-12-20T00:06:22;53.78;;;21.73;;
44204;SDS011;30163;42.698;23.344;2022-12-20T00:08:52;50.38;;;21.50;;
44204;SDS011;30163;42.698;23.344;2022-12-20T00:11:19;49.80;;;20.50;;
44204;SDS011;30163;42.698;23.344;2022-12-20T00:13:45;48.65;;;21.13;;
44204;SDS011;30163;42.698;23.344;2022-12-20T00:16:15;49.25;;;20.25;;
44204;SDS011;30163;42.698;23.344;2022-12-20T00:18:43;53.65;;;21.17;;
44204;SDS011;30163;42.698;23.344;2022-12-20T00:21:10;50.30;;;20.52;;
44204;SDS011;30163;42.698;23.344;2022-12-20T00:23:37;48.55;;;21.08;;
44204;SDS011;30163;42.698;23.344;2022-12-20T00:26:03;48.80;;;21.02;;
44204;SDS011;30163;42.698;23.344;2022-12-20T00:28:31;60.90;;;20.75;;
44204;SDS011;30163;42.698;23.344;2022-12-20T00:30:57;48.28;;;20.75;;
44204;SDS011;30163;42.698;23.344;2022-12-20T00:33:23;50.53;;;18.92;;
44204;SDS011;30163;42.698;23.344;2022-12-20T00:35:48;44.63;;;17.23;;
44204;SDS011;30163;42.698;23.344;2022-12-20T00:38:14;39.63;;;16.02;;
44204;SDS011;30163;42.698;23.344;2022-12-20T00:40:39;41.15;;;16.73;;
44204;SDS011;30163;42.698;23.344;2022-12-20T00:43:05;33.80;;;14.38;;
44204;SDS011;30163;42.698;23.344;2022-12-20T00:45:30;38.65;;;17.10;;
44204;SDS011;30163;42.698;23.344;2022-12-20T00:47:55;32.88;;;14.40;;
44204;SDS011;30163;42.698;23.344;2022-12-20T00:50:21;43.58;;;17.30;;
44204;SDS011;30163;42.698;23.344;2022-12-20T00:52:46;38.22;;;16.42;;
44204;SDS011;30163;42.698;23.344;2022-12-20T00:55:12;45.95;;;18.45;;
44204;SDS011;30163;42.698;23.344;2022-12-20T00:57:37;40.00;;;17.90;;
44204;SDS011;30163;42.698;23.344;2022-12-20T01:00:03;36.85;;;16.98;;
44204;SDS011;30163;42.698;23.344;2022-12-20T01:02:28;36.83;;;16.85;;
44204;SDS011;30163;42.698;23.344;2022-12-20T01:04:54;35.00;;;15.07;;
44204;SDS011;30163;42.698;23.344;2022-12-20T01:07:19;34.03;;;13.43;;
44204;SDS011;30163;42.698;23.344;2022-12-20T01:09:47;37.63;;;15.10;;
44204;SDS011;30163;42.698;23.344;2022-12-20T01:12:12;36.28;;;14.90;;
44204;SDS011;30163;42.698;23.344;2022-12-20T01:14:38;34.58;;;15.65;;
44204;SDS011;30163;42.698;23.344;2022-12-20T01:17:04;28.75;;;13.55;;
44204;SDS011;30163;42.698;23.344;2022-12-20T01:19:29;33.13;;;14.35;;
44204;SDS011;30163;42.698;23.344;2022-12-20T01:21:54;33.72;;;13.57;;
44204;SDS011;30163;42.698;23.344;2022-12-20T01:24:20;27.77;;;14.43;;
44204;SDS011;30163;42.698;23.344;2022-12-20T01:26:46;23.92;;;12.15;;
44204;SDS011;30163;42.698;23.344;2022-12-20T01:29:12;28.55;;;13.88;;
44204;SDS011;30163;42.698;23.344;2022-12-20T01:31:38;30.00;;;13.32;;
44204;SDS011;30163;42.698;23.344;2022-12-20T01:34:03;33.05;;;13.18;;
44204;SDS011;30163;42.698;23.344;2022-12-20T01:36:30;31.35;;;13.73;;
44204;SDS011;30163;42.698;23.344;2022-12-20T01:38:58;27.80;;;12.63;;
44204;SDS011;30163;42.698;23.344;2022-12-20T01:41:25;29.55;;;12.75;;
44204;SDS011;30163;42.698;23.344;2022-12-20T01:43:56;25.55;;;11.77;;
44204;SDS011;30163;42.698;23.344;2022-12-20T01:46:23;34.90;;;14.50;;
44204;SDS011;30163;42.698;23.344;2022-12-20T01:51:40;32.13;;;13.10;;
44204;SDS011;30163;42.698;23.344;2022-12-20T01:54:29;32.35;;;13.57;;
44204;SDS011;30163;42.698;23.344;2022-12-20T01:56:57;28.02;;;13.73;;
44204;SDS011;30163;42.698;23.344;2022-12-20T01:59:26;33.30;;;13.90;;
44204;SDS011;30163;42.698;23.344;2022-12-20T02:01:52;28.00;;;12.65;;
44204;SDS011;30163;42.698;23.344;2022-12-20T02:04:20;27.05;;;13.20;;
44204;SDS011;30163;42.698;23.344;2022-12-20T02:06:45;26.20;;;13.73;;
44204;SDS011;30163;42.698;23.344;2022-12-20T02:09:11;28.20;;;13.52;;
44204;SDS011;30163;42.698;23.344;2022-12-20T02:11:39;35.85;;;13.57;;
44204;SDS011;30163;42.698;23.344;2022-12-20T02:16:50;29.75;;;14.00;;
44204;SDS011;30163;42.698;23.344;2022-12-20T02:25:11;35.95;;;15.68;;
44204;SDS011;30163;42.698;23.344;2022-12-20T02:27:59;32.83;;;14.70;;
44204;SDS011;30163;42.698;23.344;2022-12-20T02:30:27;32.10;;;14.18;;
44204;SDS011;30163;42.698;23.344;2022-12-20T02:35:25;40.13;;;16.60;;
44204;SDS011;30163;42.698;23.344;2022-12-20T02:37:53;30.55;;;14.95;;
44204;SDS011;30163;42.698;23.344;2022-12-20T02:40:21;39.33;;;16.08;;
44204;SDS011;30163;42.698;23.344;2022-12-20T02:42:50;32.65;;;15.13;;
44204;SDS011;30163;42.698;23.344;2022-12-20T02:45:18;43.63;;;15.30;;
44204;SDS011;30163;42.698;23.344;2022-12-20T02:47:47;33.00;;;15.25;;
44204;SDS011;30163;42.698;23.344;2022-12-20T02:50:17;33.58;;;14.13;;
44204;SDS011;30163;42.698;23.344;2022-12-20T02:52:46;41.13;;;16.40;;
44204;SDS011;30163;42.698;23.344;2022-12-20T02:55:12;32.30;;;15.60;;
44204;SDS011;30163;42.698;23.344;2022-12-20T02:57:41;38.85;;;17.13;;
44204;SDS011;30163;42.698;23.344;2022-12-20T03:00:21;27.65;;;13.70;;
44204;SDS011;30163;42.698;23.344;2022-12-20T03:02:47;29.65;;;14.00;;
44204;SDS011;30163;42.698;23.344;2022-12-20T03:05:32;29.85;;;14.48;;
44204;SDS011;30163;42.698;23.344;2022-12-20T03:08:00;34.40;;;14.43;;
44204;SDS011;30163;42.698;23.344;2022-12-20T03:10:26;37.55;;;14.73;;
44204;SDS011;30163;42.698;23.344;2022-12-20T03:12:51;31.77;;;14.65;;
44204;SDS011;30163;42.698;23.344;2022-12-20T03:15:17;36.38;;;15.48;;
44204;SDS011;30163;42.698;23.344;2022-12-20T03:17:42;35.10;;;14.70;;
44204;SDS011;30163;42.698;23.344;2022-12-20T03:20:08;35.50;;;16.80;;
44204;SDS011;30163;42.698;23.344;2022-12-20T03:22:35;36.47;;;16.48;;
44204;SDS011;30163;42.698;23.344;2022-12-20T03:25:01;44.45;;;17.05;;
44204;SDS011;30163;42.698;23.344;2022-12-20T03:27:26;48.78;;;17.50;;
44204;SDS011;30163;42.698;23.344;2022-12-20T03:29:53;29.75;;;15.27;;
44204;SDS011;30163;42.698;23.344;2022-12-20T03:32:18;43.90;;;18.67;;
44204;SDS011;30163;42.698;23.344;2022-12-20T03:34:44;33.38;;;15.98;;
44204;SDS011;30163;42.698;23.344;2022-12-20T03:37:09;38.00;;;17.92;;
44204;SDS011;30163;42.698;23.344;2022-12-20T03:39:35;43.88;;;19.33;;
44204;SDS011;30163;42.698;23.344;2022-12-20T03:42:00;48.08;;;17.88;;
44204;SDS011;30163;42.698;23.344;2022-12-20T03:44:26;43.08;;;18.63;;
44204;SDS011;30163;42.698;23.344;2022-12-20T03:46:51;39.40;;;17.80;;
44204;SDS011;30163;42.698;23.344;2022-12-20T03:49:17;40.00;;;18.42;;
44204;SDS011;30163;42.698;23.344;2022-12-20T03:51:42;46.70;;;18.80;;
44204;SDS011;30163;42.698;23.344;2022-12-20T03:54:08;40.03;;;18.58;;
44204;SDS011;30163;42.698;23.344;2022-12-20T03:56:33;45.63;;;19.55;;
44204;SDS011;30163;42.698;23.344;2022-12-20T03:58:58;51.67;;;20.55;;
44204;SDS011;30163;42.698;23.344;2022-12-20T04:01:25;51.47;;;20.88;;
44204;SDS011;30163;42.698;23.344;2022-12-20T04:03:52;41.75;;;20.20;;
44204;SDS011;30163;42.698;23.344;2022-12-20T04:06:18;49.28;;;20.75;;
44204;SDS011;30163;42.698;23.344;2022-12-20T04:08:45;46.92;;;19.27;;
44204;SDS011;30163;42.698;23.344;2022-12-20T04:11:11;51.50;;;20.60;;
44204;SDS011;30163;42.698;23.344;2022-12-20T04:16:16;48.85;;;20.05;;
44204;SDS011;30163;42.698;23.344;2022-12-20T04:18:43;41.25;;;19.63;;
44204;SDS011;30163;42.698;23.344;2022-12-20T04:21:09;45.20;;;19.83;;
44204;SDS011;30163;42.698;23.344;2022-12-20T04:23:35;51.95;;;21.30;;
44204;SDS011;30163;42.698;23.344;2022-12-20T04:26:02;48.85;;;20.55;;
44204;SDS011;30163;42.698;23.344;2022-12-20T04:28:29;48.72;;;20.52;;
44204;SDS011;30163;42.698;23.344;2022-12-20T04:30:54;44.90;;;19.52;;
44204;SDS011;30163;42.698;23.344;2022-12-20T04:33:20;42.88;;;20.02;;
44204;SDS011;30163;42.698;23.344;2022-12-20T04:35:46;48.08;;;20.70;;
44204;SDS011;30163;42.698;23.344;2022-12-20T04:38:11;57.58;;;22.33;;
44204;SDS011;30163;42.698;23.344;2022-12-20T04:40:37;57.22;;;22.42;;
44204;SDS011;30163;42.698;23.344;2022-12-20T04:43:02;68.50;;;22.90;;
44204;SDS011;30163;42.698;23.344;2022-12-20T04:45:27;55.58;;;22.88;;
44204;SDS011;30163;42.698;23.344;2022-12-20T04:47:54;52.17;;;23.40;;
44204;SDS011;30163;42.698;23.344;2022-12-20T04:50:19;49.47;;;20.42;;
44204;SDS011;30163;42.698;23.344;2022-12-20T04:52:45;49.08;;;19.60;;
44204;SDS011;30163;42.698;23.344;2022-12-20T04:55:29;48.55;;;21.10;;
44204;SDS011;30163;42.698;23.344;2022-12-20T04:57:54;47.65;;;20.10;;
44204;SDS011;30163;42.698;23.344;2022-12-20T05:00:19;47.58;;;21.88;;
44204;SDS011;30163;42.698;23.344;2022-12-20T05:02:46;41.65;;;20.98;;
44204;SDS011;30163;42.698;23.344;2022-12-20T05:05:11;49.92;;;21.63;;
44204;SDS011;30163;42.698;23.344;2022-12-20T05:07:38;48.70;;;21.08;;
44204;SDS011;30163;42.698;23.344;2022-12-20T05:10:03;52.38;;;21.52;;
44204;SDS011;30163;42.698;23.344;2022-12-20T05:12:29;53.25;;;19.85;;
44204;SDS011;30163;42.698;23.344;2022-12-20T05:14:54;50.65;;;21.48;;
44204;SDS011;30163;42.698;23.344;2022-12-20T05:17:20;41.45;;;21.00;;
44204;SDS011;30163;42.698;23.344;2022-12-20T05:19:45;54.28;;;21.02;;
44204;SDS011;30163;42.698;23.344;2022-12-20T05:22:11;51.75;;;22.30;;
44204;SDS011;30163;42.698;23.344;2022-12-20T05:24:55;50.00;;;21.75;;
44204;SDS011;30163;42.698;23.344;2022-12-20T05:27:39;55.35;;;20.05;;
44204;SDS011;30163;42.698;23.344;2022-12-20T05:30:04;50.20;;;21.80;;
44204;SDS011;30163;42.698;23.344;2022-12-20T05:32:30;42.80;;;20.65;;
44204;SDS011;30163;42.698;23.344;2022-12-20T05:34:55;45.33;;;19.67;;
44204;SDS011;30163;42.698;23.344;2022-12-20T05:37:21;51.15;;;23.02;;
44204;SDS011;30163;42.698;23.344;2022-12-20T05:39:46;54.40;;;20.80;;
44204;SDS011;30163;42.698;23.344;2022-12-20T05:42:12;44.90;;;21.02;;
44204;SDS011;30163;42.698;23.344;2022-12-20T05:44:37;44.53;;;20.33;;
44204;SDS011;30163;42.698;23.344;2022-12-20T05:47:02;43.38;;;19.75;;
44204;SDS011;30163;42.698;23.344;2022-12-20T05:49:28;56.92;;;19.73;;
44204;SDS011;30163;42.698;23.344;2022-12-20T05:51:53;46.15;;;20.05;;
44204;SDS011;30163;42.698;23.344;2022-12-20T05:54:19;38.75;;;18.58;;
44204;SDS011;30163;42.698;23.344;2022-12-20T05:56:44;56.97;;;21.98;;
44204;SDS011;30163;42.698;23.344;2022-12-20T05:59:09;48.10;;;20.55;;
44204;SDS011;30163;42.698;23.344;2022-12-20T06:01:35;46.17;;;21.30;;
44204;SDS011;30163;42.698;23.344;2022-12-20T06:04:01;53.70;;;21.48;;
44204;SDS011;30163;42.698;23.344;2022-12-20T06:06:26;53.90;;;19.80;;
44204;SDS011;30163;42.698;23.344;2022-12-20T06:08:52;54.72;;;22.17;;
44204;SDS011;30163;42.698;23.344;2022-12-20T06:11:17;51.80;;;20.73;;
44204;SDS011;30163;42.698;23.344;2022-12-20T06:13:42;43.17;;;21.00;;
44204;SDS011;30163;42.698;23.344;2022-12-20T06:16:08;48.33;;;21.65;;
44204;SDS011;30163;42.698;23.344;2022-12-20T06:18:33;49.00;;;23.98;;
44204;SDS011;30163;42.698;23.344;2022-12-20T06:20:59;59.88;;;20.95;;
44204;SDS011;30163;42.698;23.344;2022-12-20T06:23:24;53.90;;;22.42;;
44204;SDS011;30163;42.698;23.344;2022-12-20T06:25:50;56.28;;;23.17;;
44204;SDS011;30163;42.698;23.344;2022-12-20T06:28:15;50.10;;;23.13;;
44204;SDS011;30163;42.698;23.344;2022-12-20T06:30:50;58.50;;;22.27;;
44204;SDS011;30163;42.698;23.344;2022-12-20T06:33:17;49.95;;;21.17;;
44204;SDS011;30163;42.698;23.344;2022-12-20T06:35:42;49.55;;;22.23;;
44204;SDS011;30163;42.698;23.344;2022-12-20T06:38:07;55.20;;;22.30;;
44204;SDS011;30163;42.698;23.344;2022-12-20T06:40:33;57.50;;;22.35;;
44204;SDS011;30163;42.698;23.344;2022-12-20T06:42:58;53.20;;;21.75;;
44204;SDS011;30163;42.698;23.344;2022-12-20T06:45:24;64.50;;;25.55;;
44204;SDS011;30163;42.698;23.344;2022-12-20T06:47:49;53.50;;;23.80;;
44204;SDS011;30163;42.698;23.344;2022-12-20T06:50:14;51.38;;;23.15;;
44204;SDS011;30163;42.698;23.344;2022-12-20T06:52:40;59.10;;;23.67;;
44204;SDS011;30163;42.698;23.344;2022-12-20T06:55:05;58.95;;;22.35;;
44204;SDS011;30163;42.698;23.344;2022-12-20T06:57:32;63.30;;;24.80;;
44204;SDS011;30163;42.698;23.344;2022-12-20T06:59:57;58.13;;;24.27;;
44204;SDS011;30163;42.698;23.344;2022-12-20T07:02:22;76.75;;;24.88;;
44204;SDS011;30163;42.698;23.344;2022-12-20T07:04:48;70.63;;;26.58;;
44204;SDS011;30163;42.698;23.344;2022-12-20T07:07:13;61.42;;;25.25;;
44204;SDS011;30163;42.698;23.344;2022-12-20T07:09:39;56.67;;;23.25;;
44204;SDS011;30163;42.698;23.344;2022-12-20T07:12:06;56.58;;;25.33;;
44204;SDS011;30163;42.698;23.344;2022-12-20T07:14:32;53.42;;;23.40;;
44204;SDS011;30163;42.698;23.344;2022-12-20T07:16:58;58.10;;;25.30;;
44204;SDS011;30163;42.698;23.344;2022-12-20T07:19:23;62.10;;;23.20;;
44204;SDS011;30163;42.698;23.344;2022-12-20T07:21:48;49.78;;;23.02;;
44204;SDS011;30163;42.698;23.344;2022-12-20T07:24:14;49.13;;;22.00;;
44204;SDS011;30163;42.698;23.344;2022-12-20T07:26:39;49.00;;;21.75;;
44204;SDS011;30163;42.698;23.344;2022-12-20T07:29:05;59.15;;;21.45;;
44204;SDS011;30163;42.698;23.344;2022-12-20T07:31:31;65.70;;;21.70;;
44204;SDS011;30163;42.698;23.344;2022-12-20T07:33:56;56.10;;;21.38;;
44204;SDS011;30163;42.698;23.344;2022-12-20T07:36:22;53.30;;;20.90;;
44204;SDS011;30163;42.698;23.344;2022-12-20T07:38:47;48.70;;;19.95;;
44204;SDS011;30163;42.698;23.344;2022-12-20T07:41:14;49.70;;;19.33;;
44204;SDS011;30163;42.698;23.344;2022-12-20T07:43:41;64.53;;;20.48;;
44204;SDS011;30163;42.698;23.344;2022-12-20T07:46:07;41.30;;;17.52;;
44204;SDS011;30163;42.698;23.344;2022-12-20T07:48:33;43.95;;;18.70;;
44204;SDS011;30163;42.698;23.344;2022-12-20T07:51:07;52.10;;;20.27;;
44204;SDS011;30163;42.698;23.344;2022-12-20T07:53:36;46.40;;;19.25;;
44204;SDS011;30163;42.698;23.344;2022-12-20T07:56:03;37.78;;;16.23;;
44204;SDS011;30163;42.698;23.344;2022-12-20T07:58:29;33.78;;;16.17;;
44204;SDS011;30163;42.698;23.344;2022-12-20T08:00:56;39.92;;;15.88;;
44204;SDS011;30163;42.698;23.344;2022-12-20T08:03:26;36.63;;;16.42;;
44204;SDS011;30163;42.698;23.344;2022-12-20T08:05:56;37.63;;;17.23;;
44204;SDS011;30163;42.698;23.344;2022-12-20T08:08:23;39.25;;;16.27;;
44204;SDS011;30163;42.698;23.344;2022-12-20T08:10:49;41.60;;;15.73;;
44204;SDS011;30163;42.698;23.344;2022-12-20T08:13:14;33.53;;;16.25;;
44204;SDS011;30163;42.698;23.344;2022-12-20T08:15:40;34.05;;;14.00;;
44204;SDS011;30163;42.698;23.344;2022-12-20T08:18:06;40.38;;;16.75;;
44204;SDS011;30163;42.698;23.344;2022-12-20T08:20:31;31.65;;;13.43;;
44204;SDS011;30163;42.698;23.344;2022-12-20T08:22:57;36.58;;;15.27;;
44204;SDS011;30163;42.698;23.344;2022-12-20T08:25:22;41.60;;;15.65;;
44204;SDS011;30163;42.698;23.344;2022-12-20T08:27:48;34.08;;;15.65;;
44204;SDS011;30163;42.698;23.344;2022-12-20T08:30:14;34.88;;;16.15;;
44204;SDS011;30163;42.698;23.344;2022-12-20T08:32:39;31.65;;;14.88;;
44204;SDS011;30163;42.698;23.344;2022-12-20T08:35:05;38.55;;;15.20;;
44204;SDS011;30163;42.698;23.344;2022-12-20T08:37:31;37.15;;;15.73;;
44204;SDS011;30163;42.698;23.344;2022-12-20T08:39:56;34.45;;;15.60;;
44204;SDS011;30163;42.698;23.344;2022-12-20T08:42:22;46.95;;;14.48;;
44204;SDS011;30163;42.698;23.344;2022-12-20T08:44:47;33.88;;;14.68;;
44204;SDS011;30163;42.698;23.344;2022-12-20T08:47:13;34.80;;;15.15;;
44204;SDS011;30163;42.698;23.344;2022-12-20T08:49:38;40.33;;;15.80;;
44204;SDS011;30163;42.698;23.344;2022-12-20T08:52:04;32.50;;;13.60;;
44204;SDS011;30163;42.698;23.344;2022-12-20T08:54:29;37.20;;;14.80;;
44204;SDS011;30163;42.698;23.344;2022-12-20T08:56:55;40.17;;;14.30;;
44204;SDS011;30163;42.698;23.344;2022-12-20T08:59:20;34.72;;;13.57;;
44204;SDS011;30163;42.698;23.344;2022-12-20T09:01:45;39.35;;;14.60;;
44204;SDS011;30163;42.698;23.344;2022-12-20T09:04:11;38.17;;;14.45;;
44204;SDS011;30163;42.698;23.344;2022-12-20T09:06:37;41.08;;;14.57;;
44204;SDS011;30163;42.698;23.344;2022-12-20T09:09:03;31.27;;;13.90;;
44204;SDS011;30163;42.698;23.344;2022-12-20T09:11:29;42.08;;;15.30;;
44204;SDS011;30163;42.698;23.344;2022-12-20T09:13:55;29.92;;;13.65;;
44204;SDS011;30163;42.698;23.344;2022-12-20T09:16:22;35.35;;;16.27;;
44204;SDS011;30163;42.698;23.344;2022-12-20T09:18:54;40.20;;;19.15;;
44204;SDS011;30163;42.698;23.344;2022-12-20T09:21:20;31.02;;;14.13;;
44204;SDS011;30163;42.698;23.344;2022-12-20T09:23:48;40.05;;;15.15;;
44204;SDS011;30163;42.698;23.344;2022-12-20T09:26:17;40.65;;;16.15;;
44204;SDS011;30163;42.698;23.344;2022-12-20T09:28:43;37.65;;;14.18;;
44204;SDS011;30163;42.698;23.344;2022-12-20T09:31:11;35.53;;;15.25;;
44204;SDS011;30163;42.698;23.344;2022-12-20T09:33:41;27.33;;;13.88;;
44204;SDS011;30163;42.698;23.344;2022-12-20T09:36:11;31.10;;;14.13;;
44204;SDS011;30163;42.698;23.344;2022-12-20T09:38:38;51.78;;;15.23;;
44204;SDS011;30163;42.698;23.344;2022-12-20T09:41:04;30.75;;;12.50;;
44204;SDS011;30163;42.698;23.344;2022-12-20T09:43:31;33.92;;;13.15;;
44204;SDS011;30163;42.698;23.344;2022-12-20T09:45:58;36.20;;;13.82;;
44204;SDS011;30163;42.698;23.344;2022-12-20T09:48:28;25.20;;;12.60;;
44204;SDS011;30163;42.698;23.344;2022-12-20T09:56:29;28.98;;;12.93;;
44204;SDS011;30163;42.698;23.344;2022-12-20T10:01:27;36.15;;;14.65;;
44204;SDS011;30163;42.698;23.344;2022-12-20T10:03:55;32.17;;;12.63;;
44204;SDS011;30163;42.698;23.344;2022-12-20T10:22:53;42.85;;;14.30;;
44204;SDS011;30163;42.698;23.344;2022-12-20T10:25:25;38.00;;;14.68;;
44204;SDS011;30163;42.698;23.344;2022-12-20T10:27:54;29.48;;;13.27;;
44204;SDS011;30163;42.698;23.344;2022-12-20T10:30:23;32.63;;;13.38;;
44204;SDS011;30163;42.698;23.344;2022-12-20T10:32:52;39.22;;;15.23;;
44204;SDS011;30163;42.698;23.344;2022-12-20T10:38:08;25.95;;;12.15;;
44204;SDS011;30163;42.698;23.344;2022-12-20T10:43:19;59.58;;;17.83;;
44204;SDS011;30163;42.698;23.344;2022-12-20T10:48:31;74.03;;;14.15;;
44204;SDS011;30163;42.698;23.344;2022-12-20T10:53:29;33.05;;;13.60;;
44204;SDS011;30163;42.698;23.344;2022-12-20T11:01:38;47.20;;;14.55;;
44204;SDS011;30163;42.698;23.344;2022-12-20T11:07:00;25.85;;;10.57;;
44204;SDS011;30163;42.698;23.344;2022-12-20T11:09:31;44.90;;;14.60;;
44204;SDS011;30163;42.698;23.344;2022-12-20T11:12:02;30.92;;;13.10;;
44204;SDS011;30163;42.698;23.344;2022-12-20T11:14:27;24.70;;;10.27;;
44204;SDS011;30163;42.698;23.344;2022-12-20T11:16:54;32.15;;;11.95;;
44204;SDS011;30163;42.698;23.344;2022-12-20T11:27:20;29.60;;;12.25;;
44204;SDS011;30163;42.698;23.344;2022-12-20T11:32:58;23.50;;;11.07;;
44204;SDS011;30163;42.698;23.344;2022-12-20T11:49:02;18.88;;;9.75;;
44204;SDS011;30163;42.698;23.344;2022-12-20T11:54:11;23.13;;;10.17;;
44204;SDS011;30163;42.698;23.344;2022-12-20T11:56:39;29.02;;;11.50;;
44204;SDS011;30163;42.698;23.344;2022-12-20T11:59:10;26.25;;;10.55;;
44204;SDS011;30163;42.698;23.344;2022-12-20T12:02:33;27.08;;;11.07;;
44204;SDS011;30163;42.698;23.344;2022-12-20T12:04:53;20.65;;;9.85;;
44204;SDS011;30163;42.698;23.344;2022-12-20T12:07:24;25.00;;;9.95;;
44204;SDS011;30163;42.698;23.344;2022-12-20T12:15:23;24.60;;;9.80;;
44204;SDS011;30163;42.698;23.344;2022-12-20T12:17:58;22.30;;;8.60;;
44204;SDS011;30163;42.698;23.344;2022-12-20T12:20:40;18.95;;;9.27;;
44204;SDS011;30163;42.698;23.344;2022-12-20T12:23:26;19.55;;;8.98;;
44204;SDS011;30163;42.698;23.344;2022-12-20T12:25:59;25.85;;;10.15;;
44204;SDS011;30163;42.698;23.344;2022-12-20T12:28:28;20.73;;;9.63;;
44204;SDS011;30163;42.698;23.344;2022-12-20T12:30:55;20.80;;;9.98;;
44204;SDS011;30163;42.698;23.344;2022-12-20T12:33:27;29.00;;;10.20;;
44204;SDS011;30163;42.698;23.344;2022-12-20T12:38:57;29.33;;;9.85;;
44204;SDS011;30163;42.698;23.344;2022-12-20T12:42:01;24.98;;;10.95;;
44204;SDS011;30163;42.698;23.344;2022-12-20T12:46:44;28.35;;;10.05;;
44204;SDS011;30163;42.698;23.344;2022-12-20T12:49:16;35.45;;;9.65;;
44204;SDS011;30163;42.698;23.344;2022-12-20T12:51:43;32.80;;;9.77;;
44204;SDS011;30163;42.698;23.344;2022-12-20T12:54:20;22.80;;;8.95;;
44204;SDS011;30163;42.698;23.344;2022-12-20T12:56:47;21.58;;;8.52;;
44204;SDS011;30163;42.698;23.344;2022-12-20T13:05:40;20.33;;;8.55;;
44204;SDS011;30163;42.698;23.344;2022-12-20T13:20:30;22.88;;;8.57;;
44204;SDS011;30163;42.698;23.344;2022-12-20T13:25:37;18.67;;;8.98;;
44204;SDS011;30163;42.698;23.344;2022-12-20T13:38:41;37.78;;;10.75;;
44204;SDS011;30163;42.698;23.344;2022-12-20T13:46:42;23.85;;;9.35;;
44204;SDS011;30163;42.698;23.344;2022-12-20T13:49:22;31.30;;;10.60;;
44204;SDS011;30163;42.698;23.344;2022-12-20T13:54:35;34.30;;;10.65;;
44204;SDS011;30163;42.698;23.344;2022-12-20T13:57:10;32.38;;;10.90;;
44204;SDS011;30163;42.698;23.344;2022-12-20T13:59:43;37.28;;;9.63;;
44204;SDS011;30163;42.698;23.344;2022-12-20T14:02:10;21.58;;;9.95;;
44204;SDS011;30163;42.698;23.344;2022-12-20T14:04:45;41.58;;;10.95;;
44204;SDS011;30163;42.698;23.344;2022-12-20T14:07:17;29.58;;;11.90;;
44204;SDS011;30163;42.698;23.344;2022-12-20T14:09:44;36.63;;;10.85;;
44204;SDS011;30163;42.698;23.344;2022-12-20T14:12:11;31.80;;;11.25;;
44204;SDS011;30163;42.698;23.344;2022-12-20T14:14:44;33.53;;;11.07;;
44204;SDS011;30163;42.698;23.344;2022-12-20T14:19:40;27.83;;;10.88;;
44204;SDS011;30163;42.698;23.344;2022-12-20T14:22:06;37.40;;;9.52;;
44204;SDS011;30163;42.698;23.344;2022-12-20T14:24:34;18.10;;;8.23;;
44204;SDS011;30163;42.698;23.344;2022-12-20T14:27:00;20.58;;;8.63;;
44204;SDS011;30163;42.698;23.344;2022-12-20T14:29:27;24.35;;;9.15;;
44204;SDS011;30163;42.698;23.344;2022-12-20T14:31:53;32.78;;;10.38;;
44204;SDS011;30163;42.698;23.344;2022-12-20T14:34:26;21.55;;;9.32;;
44204;SDS011;30163;42.698;23.344;2022-12-20T14:37:16;27.08;;;10.90;;
44204;SDS011;30163;42.698;23.344;2022-12-20T14:39:54;27.00;;;10.77;;
44204;SDS011;30163;42.698;23.344;2022-12-20T14:42:20;33.35;;;15.68;;
44204;SDS011;30163;42.698;23.344;2022-12-20T14:44:45;56.80;;;19.15;;
44204;SDS011;30163;42.698;23.344;2022-12-20T14:47:15;50.00;;;19.80;;
44204;SDS011;30163;42.698;23.344;2022-12-20T14:49:49;46.78;;;19.73;;
44204;SDS011;30163;42.698;23.344;2022-12-20T14:52:20;46.38;;;21.05;;
44204;SDS011;30163;42.698;23.344;2022-12-20T15:02:41;62.55;;;22.27;;
44204;SDS011;30163;42.698;23.344;2022-12-20T15:08:19;45.58;;;14.70;;
44204;SDS011;30163;42.698;23.344;2022-12-20T15:16:11;49.60;;;18.77;;
44204;SDS011;30163;42.698;23.344;2022-12-20T15:18:39;86.63;;;25.02;;
44204;SDS011;30163;42.698;23.344;2022-12-20T15:21:21;72.78;;;28.48;;
44204;SDS011;30163;42.698;23.344;2022-12-20T15:23:58;81.95;;;30.00;;
44204;SDS011;30163;42.698;23.344;2022-12-20T15:26:25;75.97;;;26.85;;
44204;SDS011;30163;42.698;23.344;2022-12-20T15:28:51;70.97;;;24.90;;
44204;SDS011;30163;42.698;23.344;2022-12-20T15:31:18;83.60;;;27.67;;
44204;SDS011;30163;42.698;23.344;2022-12-20T15:33:44;66.70;;;27.50;;
44204;SDS011;30163;42.698;23.344;2022-12-20T15:36:17;74.70;;;27.15;;
44204;SDS011;30163;42.698;23.344;2022-12-20T15:38:44;86.15;;;27.20;;
44204;SDS011;30163;42.698;23.344;2022-12-20T15:41:12;77.10;;;27.95;;
44204;SDS011;30163;42.698;23.344;2022-12-20T15:43:41;90.80;;;27.20;;
44204;SDS011;30163;42.698;23.344;2022-12-20T15:46:07;68.03;;;27.98;;
44204;SDS011;30163;42.698;23.344;2022-12-20T15:48:32;93.53;;;28.52;;
44204;SDS011;30163;42.698;23.344;2022-12-20T15:50:58;71.10;;;29.98;;
44204;SDS011;30163;42.698;23.344;2022-12-20T15:53:29;86.05;;;32.25;;
44204;SDS011;30163;42.698;23.344;2022-12-20T15:55:57;97.07;;;32.22;;
44204;SDS011;30163;42.698;23.344;2022-12-20T15:58:23;89.72;;;33.50;;
44204;SDS011;30163;42.698;23.344;2022-12-20T16:00:49;91.03;;;30.48;;
44204;SDS011;30163;42.698;23.344;2022-12-20T16:03:17;87.88;;;31.85;;
44204;SDS011;30163;42.698;23.344;2022-12-20T16:05:43;90.45;;;32.50;;
44204;SDS011;30163;42.698;23.344;2022-12-20T16:08:09;67.97;;;28.50;;
44204;SDS011;30163;42.698;23.344;2022-12-20T16:10:34;68.78;;;28.60;;
44204;SDS011;30163;42.698;23.344;2022-12-20T16:13:00;69.72;;;26.67;;
44204;SDS011;30163;42.698;23.344;2022-12-20T16:15:25;80.53;;;29.63;;
44204;SDS011;30163;42.698;23.344;2022-12-20T16:17:51;73.82;;;27.77;;
44204;SDS011;30163;42.698;23.344;2022-12-20T16:20:16;72.85;;;26.73;;
44204;SDS011;30163;42.698;23.344;2022-12-20T16:22:43;74.53;;;27.10;;
44204;SDS011;30163;42.698;23.344;2022-12-20T16:25:14;69.18;;;28.15;;
44204;SDS011;30163;42.698;23.344;2022-12-20T16:27:48;70.65;;;24.92;;
44204;SDS011;30163;42.698;23.344;2022-12-20T16:30:14;69.35;;;29.75;;
44204;SDS011;30163;42.698;23.344;2022-12-20T16:32:39;69.10;;;29.38;;
44204;SDS011;30163;42.698;23.344;2022-12-20T16:35:05;82.00;;;28.52;;
44204;SDS011;30163;42.698;23.344;2022-12-20T16:37:30;65.53;;;25.63;;
44204;SDS011;30163;42.698;23.344;2022-12-20T16:39:56;71.40;;;26.92;;
44204;SDS011;30163;42.698;23.344;2022-12-20T16:42:21;69.53;;;28.83;;
44204;SDS011;30163;42.698;23.344;2022-12-20T16:44:50;84.32;;;34.90;;
44204;SDS011;30163;42.698;23.344;2022-12-20T16:47:16;82.00;;;29.33;;
44204;SDS011;30163;42.698;23.344;2022-12-20T16:49:42;87.78;;;31.48;;